createdAt,value
2018-09-29T00:01:55.716Z,99.90
2018-09-29T00:04:24.428Z,99.90
2018-09-29T00:06:52.622Z,99.90
2018-09-29T00:09:20.791Z,99.90
2018-09-29T00:11:48.998Z,99.90
2018-09-29T00:14:17.242Z,99.90
2018-09-29T00:16:45.460Z,99.90
2018-09-29T00:19:13.661Z,99.90
2018-09-29T00:21:41.837Z,99.90
2018-09-29T00:24:10.050Z,99.90
2018-09-29T00:26:38.249Z,99.90
2018-09-29T00:29:06.426Z,99.90
2018-09-29T00:31:34.651Z,99.90
2018-09-29T00:34:02.866Z,99.90
2018-09-29T00:36:31.038Z,99.90
2018-09-29T00:38:59.232Z,99.90
2018-09-29T00:41:27.432Z,99.90
2018-09-29T00:43:55.622Z,99.90
2018-09-29T00:46:23.808Z,99.90
2018-09-29T00:48:52.080Z,99.90
2018-09-29T00:51:20.264Z,99.90
2018-09-29T00:53:48.493Z,99.90
2018-09-29T00:56:16.664Z,99.90
2018-09-29T00:58:45.003Z,99.90
2018-09-29T01:01:13.196Z,99.90
2018-09-29T01:03:41.532Z,99.90
2018-09-29T01:06:09.711Z,99.90
2018-09-29T01:08:37.924Z,99.90
2018-09-29T01:11:06.158Z,99.90
2018-09-29T01:13:34.349Z,99.90
2018-09-29T01:16:02.587Z,99.90
2018-09-29T01:18:30.847Z,99.90
2018-09-29T01:20:59.240Z,99.90
2018-09-29T01:23:30.972Z,99.90
2018-09-29T01:25:59.147Z,99.90
2018-09-29T01:28:27.404Z,99.90
2018-09-29T01:30:55.904Z,99.90
2018-09-29T01:33:24.113Z,99.90
2018-09-29T01:35:52.540Z,99.90
2018-09-29T01:38:25.432Z,99.90
2018-09-29T01:40:53.613Z,99.90
2018-09-29T01:43:21.844Z,99.90
2018-09-29T01:45:50.743Z,99.90
2018-09-29T01:48:19.106Z,99.90
2018-09-29T01:50:47.259Z,99.90
2018-09-29T01:53:19.555Z,99.90
2018-09-29T01:55:47.686Z,99.90
2018-09-29T01:58:16.817Z,99.90
2018-09-29T02:00:45.081Z,99.90
2018-09-29T02:03:13.477Z,99.90
2018-09-29T02:05:42.680Z,99.90
2018-09-29T02:08:11.603Z,99.90
2018-09-29T02:10:39.783Z,99.90
2018-09-29T02:13:07.981Z,99.90
2018-09-29T02:15:36.191Z,99.90
2018-09-29T02:18:04.368Z,99.90
2018-09-29T02:20:32.537Z,99.90
2018-09-29T02:23:04.694Z,99.90
2018-09-29T02:25:32.863Z,99.90
2018-09-29T02:28:01.752Z,99.90
2018-09-29T02:30:29.928Z,99.90
2018-09-29T02:32:58.084Z,99.90
2018-09-29T02:35:26.377Z,99.90
2018-09-29T02:37:54.531Z,99.90
2018-09-29T02:40:22.723Z,99.90
2018-09-29T02:42:50.926Z,99.90
2018-09-29T02:45:19.116Z,99.90
2018-09-29T02:47:47.293Z,99.90
2018-09-29T02:50:15.491Z,99.90
2018-09-29T02:52:43.665Z,99.90
2018-09-29T02:55:11.857Z,99.90
2018-09-29T02:57:40.067Z,99.90
2018-09-29T03:00:08.298Z,99.90
2018-09-29T03:02:36.496Z,99.90
2018-09-29T03:05:04.743Z,99.90
2018-09-29T03:07:32.991Z,99.90
2018-09-29T03:10:01.187Z,99.90
2018-09-29T03:12:29.425Z,99.90
2018-09-29T03:14:57.587Z,99.90
2018-09-29T03:17:25.861Z,99.90
2018-09-29T03:19:54.328Z,99.90
2018-09-29T03:22:22.544Z,99.90
2018-09-29T03:24:50.927Z,99.90
2018-09-29T03:27:19.116Z,99.90
2018-09-29T03:29:47.308Z,99.90
2018-09-29T03:32:15.489Z,99.90
2018-09-29T03:34:43.739Z,99.90
2018-09-29T03:37:11.944Z,99.90
2018-09-29T03:39:44.059Z,99.90
2018-09-29T03:42:12.263Z,99.90
2018-09-29T03:44:40.555Z,99.90
2018-09-29T03:47:08.825Z,99.90
2018-09-29T03:49:37.000Z,99.90
2018-09-29T03:52:05.180Z,99.90
2018-09-29T03:54:36.719Z,99.90
2018-09-29T03:57:04.936Z,99.90
2018-09-29T03:59:34.124Z,99.90
2018-09-29T04:02:08.816Z,99.90
2018-09-29T04:04:36.988Z,99.90
2018-09-29T04:07:05.162Z,99.90
2018-09-29T04:09:36.512Z,99.90
2018-09-29T04:12:04.999Z,99.90
2018-09-29T04:14:33.199Z,99.90
2018-09-29T04:17:01.360Z,99.90
2018-09-29T04:19:29.956Z,99.90
2018-09-29T04:21:58.146Z,99.90
2018-09-29T04:24:26.388Z,99.90
2018-09-29T04:26:57.616Z,99.90
2018-09-29T04:29:25.843Z,99.90
2018-09-29T04:31:54.996Z,99.90
2018-09-29T04:34:23.190Z,99.90
2018-09-29T04:36:51.375Z,99.90
2018-09-29T04:39:19.855Z,99.90
2018-09-29T04:41:51.140Z,99.90
2018-09-29T04:44:20.248Z,99.90
2018-09-29T04:46:48.477Z,99.90
2018-09-29T04:49:16.663Z,99.90
2018-09-29T04:51:44.963Z,99.90
2018-09-29T04:54:13.136Z,99.90
2018-09-29T04:56:44.428Z,99.90
2018-09-29T04:59:12.585Z,99.90
2018-09-29T05:01:40.764Z,99.90
2018-09-29T05:04:08.983Z,99.90
2018-09-29T05:06:37.394Z,99.90
2018-09-29T05:09:07.243Z,99.90
2018-09-29T05:11:39.828Z,99.90
2018-09-29T05:14:08.048Z,99.90
2018-09-29T05:16:36.581Z,99.90
2018-09-29T05:19:05.764Z,99.90
2018-09-29T05:21:33.984Z,99.90
2018-09-29T05:24:02.224Z,99.90
2018-09-29T05:26:33.533Z,99.90
2018-09-29T05:29:01.787Z,99.90
2018-09-29T05:31:30.563Z,99.90
2018-09-29T05:33:58.735Z,99.90
2018-09-29T05:36:28.296Z,99.90
2018-09-29T05:38:56.524Z,99.90
2018-09-29T05:41:25.625Z,99.90
2018-09-29T05:43:57.585Z,99.90
2018-09-29T05:46:26.116Z,99.90
2018-09-29T05:48:54.288Z,99.90
2018-09-29T05:51:22.456Z,99.90
2018-09-29T05:53:51.105Z,99.90
2018-09-29T05:56:23.731Z,99.90
2018-09-29T05:58:52.096Z,99.90
2018-09-29T06:01:20.346Z,99.90
2018-09-29T06:03:48.587Z,99.90
2018-09-29T06:06:16.812Z,99.90
2018-09-29T06:08:45.008Z,99.90
2018-09-29T06:11:13.223Z,99.90
2018-09-29T06:13:44.325Z,99.90
2018-09-29T06:16:12.569Z,99.90
2018-09-29T06:18:41.568Z,99.90
2018-09-29T06:21:10.832Z,99.90
2018-09-29T06:23:39.044Z,99.90
2018-09-29T06:26:07.246Z,99.90
2018-09-29T06:28:35.487Z,99.90
2018-09-29T06:31:03.678Z,99.90
2018-09-29T06:33:31.852Z,99.90
2018-09-29T06:36:00.784Z,99.90
2018-09-29T06:38:29.108Z,99.90
2018-09-29T06:40:57.367Z,99.90
2018-09-29T06:43:29.388Z,99.90
2018-09-29T06:45:57.608Z,99.90
2018-09-29T06:48:26.280Z,99.90
2018-09-29T06:50:54.653Z,99.90
2018-09-29T06:53:22.934Z,99.90
2018-09-29T06:55:51.904Z,99.90
2018-09-29T06:58:20.217Z,99.90
2018-09-29T07:00:48.390Z,99.90
2018-09-29T07:03:16.528Z,99.90
2018-09-29T07:05:45.618Z,99.90
2018-09-29T07:08:13.868Z,99.90
2018-09-29T07:10:42.056Z,99.90
2018-09-29T07:13:10.289Z,99.90
2018-09-29T07:15:38.523Z,99.90
2018-09-29T07:18:06.807Z,99.90
2018-09-29T07:20:35.060Z,99.90
2018-09-29T07:23:03.240Z,99.90
2018-09-29T07:25:31.936Z,99.90
2018-09-29T07:28:00.055Z,99.90
2018-09-29T07:30:28.232Z,99.90
2018-09-29T07:32:58.026Z,99.90
2018-09-29T07:35:26.281Z,99.90
2018-09-29T07:37:54.656Z,99.90
2018-09-29T07:40:22.916Z,99.90
2018-09-29T07:42:51.104Z,99.90
2018-09-29T07:45:19.983Z,99.90
2018-09-29T07:47:49.406Z,99.90
2018-09-29T07:50:18.015Z,99.90
2018-09-29T07:52:46.240Z,99.90
2018-09-29T07:55:14.572Z,99.90
2018-09-29T07:57:42.805Z,99.90
2018-09-29T08:00:11.037Z,99.90
2018-09-29T08:02:39.892Z,99.90
2018-09-29T08:05:08.113Z,99.90
2018-09-29T08:07:36.285Z,99.90
2018-09-29T08:10:05.089Z,99.90
2018-09-29T08:12:34.051Z,99.90
2018-09-29T08:15:02.137Z,99.90
2018-09-29T08:17:30.401Z,99.90
2018-09-29T08:19:59.062Z,99.90
2018-09-29T08:22:27.257Z,99.90
2018-09-29T08:24:55.479Z,99.90
2018-09-29T08:27:23.724Z,99.90
2018-09-29T08:29:51.944Z,99.90
2018-09-29T08:32:20.199Z,99.90
2018-09-29T08:34:48.330Z,99.90
2018-09-29T08:37:16.545Z,99.90
2018-09-29T08:39:44.740Z,99.90
2018-09-29T08:42:12.956Z,99.90
2018-09-29T08:44:41.132Z,99.90
2018-09-29T08:47:09.715Z,99.90
2018-09-29T08:49:37.969Z,99.90
2018-09-29T08:52:06.184Z,99.90
2018-09-29T08:54:35.620Z,99.90
2018-09-29T08:57:03.985Z,99.90
2018-09-29T08:59:33.088Z,99.90
2018-09-29T09:02:01.474Z,99.90
2018-09-29T09:04:29.700Z,99.90
2018-09-29T09:06:57.910Z,99.90
2018-09-29T09:09:26.378Z,99.90
2018-09-29T09:11:54.520Z,99.90
2018-09-29T09:14:22.696Z,99.90
2018-09-29T09:16:51.017Z,99.90
2018-09-29T09:19:19.249Z,99.90
2018-09-29T09:21:47.506Z,99.80
2018-09-29T09:24:15.765Z,99.60
2018-09-29T09:26:43.899Z,99.60
2018-09-29T09:29:12.098Z,99.70
2018-09-29T09:36:32.720Z,98.40
2018-09-29T09:39:00.952Z,97.70
2018-09-29T09:41:29.172Z,97.80
2018-09-29T09:43:57.320Z,97.00
2018-09-29T09:46:29.472Z,97.00
2018-09-29T09:48:57.664Z,94.40
2018-09-29T09:51:26.140Z,94.80
2018-09-29T09:53:54.611Z,95.30
2018-09-29T09:56:22.679Z,95.40
2018-09-29T09:58:51.061Z,94.40
2018-09-29T10:01:29.100Z,93.80
2018-09-29T10:03:57.298Z,92.70
2018-09-29T10:06:25.624Z,92.10
2018-09-29T10:08:53.832Z,93.00
2018-09-29T10:11:22.067Z,93.00
2018-09-29T10:13:50.344Z,93.40
2018-09-29T10:16:22.525Z,92.30
2018-09-29T10:18:50.723Z,91.90
2018-09-29T10:21:21.956Z,91.20
2018-09-29T10:23:50.286Z,91.20
2018-09-29T10:26:18.492Z,90.60
2018-09-29T10:28:46.931Z,90.60
2018-09-29T10:31:22.289Z,90.90
2018-09-29T10:33:50.521Z,90.90
2018-09-29T10:36:18.795Z,87.00
2018-09-29T10:38:47.793Z,84.80
2018-09-29T10:41:16.105Z,87.40
2018-09-29T10:43:44.431Z,88.80
2018-09-29T10:46:16.805Z,89.70
2018-09-29T10:48:48.223Z,86.50
2018-09-29T10:51:16.460Z,86.10
2018-09-29T10:53:44.755Z,87.10
2018-09-29T10:56:13.055Z,86.20
2018-09-29T10:58:41.305Z,83.40
2018-09-29T11:01:09.509Z,83.50
2018-09-29T11:03:37.960Z,82.20
2018-09-29T11:06:06.160Z,82.60
2018-09-29T11:08:34.513Z,82.10
2018-09-29T11:11:02.724Z,83.40
2018-09-29T11:13:34.276Z,83.10
2018-09-29T11:16:03.417Z,80.80
2018-09-29T11:18:35.250Z,82.10
2018-09-29T11:21:03.532Z,81.40
2018-09-29T11:23:31.863Z,80.10
2018-09-29T11:26:00.073Z,80.70
2018-09-29T11:28:28.316Z,80.70
2018-09-29T11:30:56.528Z,81.30
2018-09-29T11:33:24.833Z,81.30
2018-09-29T11:35:53.163Z,80.10
2018-09-29T11:38:21.373Z,79.80
2018-09-29T11:40:49.695Z,79.50
2018-09-29T11:43:17.885Z,79.80
2018-09-29T11:45:46.277Z,80.70
2018-09-29T11:48:14.552Z,79.30
2018-09-29T11:50:43.107Z,77.40
2018-09-29T11:58:10.259Z,76.90
2018-09-29T12:00:38.560Z,75.50
2018-09-29T12:03:09.927Z,75.20
2018-09-29T12:05:39.158Z,73.80
2018-09-29T12:08:07.494Z,74.40
2018-09-29T12:10:35.685Z,72.60
2018-09-29T12:13:03.902Z,72.90
2018-09-29T12:15:32.440Z,72.80
2018-09-29T12:18:04.167Z,72.20
2018-09-29T12:20:33.262Z,71.80
2018-09-29T12:23:01.458Z,71.40
2018-09-29T12:25:29.639Z,71.80
2018-09-29T12:27:57.973Z,71.60
2018-09-29T12:30:26.227Z,71.30
2018-09-29T12:32:54.825Z,71.30
2018-09-29T12:35:23.023Z,71.40
2018-09-29T12:37:52.540Z,70.90
2018-09-29T12:40:20.721Z,71.20
2018-09-29T12:42:48.908Z,70.50
2018-09-29T12:45:17.360Z,70.00
2018-09-29T12:47:46.355Z,69.00
2018-09-29T12:50:15.040Z,69.90
2018-09-29T12:52:43.259Z,69.80
2018-09-29T12:55:12.220Z,68.60
2018-09-29T12:57:40.385Z,67.90
2018-09-29T13:00:08.884Z,68.90
2018-09-29T13:02:37.089Z,69.10
2018-09-29T13:05:10.193Z,67.90
2018-09-29T13:07:38.384Z,67.80
2018-09-29T13:10:07.500Z,67.90
2018-09-29T13:12:35.928Z,69.00
2018-09-29T13:15:04.296Z,68.80
2018-09-29T13:17:32.560Z,69.40
2018-09-29T13:20:03.713Z,70.20
2018-09-29T13:22:32.390Z,70.90
2018-09-29T13:25:00.641Z,70.30
2018-09-29T13:27:28.896Z,70.60
2018-09-29T13:29:57.332Z,70.40
2018-09-29T13:32:25.558Z,70.40
2018-09-29T13:34:58.078Z,70.30
2018-09-29T13:37:26.215Z,68.90
2018-09-29T13:39:54.408Z,70.30
2018-09-29T13:42:29.452Z,70.60
2018-09-29T13:44:58.559Z,70.10
2018-09-29T13:47:26.787Z,70.70
2018-09-29T13:49:55.020Z,70.50
2018-09-29T13:52:23.208Z,69.60
2018-09-29T13:54:51.425Z,70.00
2018-09-29T13:57:19.702Z,69.90
2018-09-29T13:59:48.144Z,69.60
2018-09-29T14:02:16.439Z,69.20
2018-09-29T14:04:47.536Z,70.00
2018-09-29T14:07:15.748Z,70.30
2018-09-29T14:09:43.981Z,68.90
2018-09-29T14:12:13.473Z,69.80
2018-09-29T14:14:41.821Z,69.80
2018-09-29T14:17:10.104Z,69.70
2018-09-29T14:19:38.277Z,69.50
2018-09-29T14:22:09.668Z,68.20
2018-09-29T14:24:38.624Z,68.80
2018-09-29T14:27:06.798Z,68.00
2018-09-29T14:29:35.016Z,67.00
2018-09-29T14:32:03.263Z,66.70
2018-09-29T14:34:31.443Z,66.10
2018-09-29T14:36:59.664Z,65.50
2018-09-29T14:39:28.336Z,64.80
2018-09-29T14:41:56.591Z,64.40
2018-09-29T14:44:24.776Z,65.30
2018-09-29T14:46:53.040Z,65.10
2018-09-29T14:49:21.244Z,66.00
2018-09-29T14:51:49.508Z,65.90
2018-09-29T14:54:17.667Z,66.80
2018-09-29T14:56:45.886Z,66.60
2018-09-29T14:59:14.136Z,65.60
2018-09-29T15:01:42.464Z,65.20
2018-09-29T15:04:10.696Z,66.20
2018-09-29T15:06:42.637Z,66.60
2018-09-29T15:09:12.123Z,67.50
2018-09-29T15:11:40.379Z,68.00
2018-09-29T15:14:09.127Z,67.70
2018-09-29T15:16:37.481Z,67.00
2018-09-29T15:19:05.772Z,67.10
2018-09-29T15:21:56.311Z,67.10
2018-09-29T15:24:54.015Z,66.50
2018-09-29T15:27:52.126Z,66.50
2018-09-29T15:30:50.568Z,67.00
2018-09-29T15:33:48.820Z,68.60
2018-09-29T15:36:46.548Z,67.70
2018-09-29T15:39:45.080Z,68.00
2018-09-29T15:42:13.352Z,68.20
2018-09-29T15:45:04.190Z,67.50
2018-09-29T15:48:02.283Z,67.20
2018-09-29T15:51:00.533Z,68.30
2018-09-29T15:53:59.353Z,69.50
2018-09-29T15:56:57.240Z,69.50
2018-09-29T15:59:55.085Z,69.10
2018-09-29T16:02:53.709Z,69.20
2018-09-29T16:05:21.960Z,70.10
2018-09-29T16:08:13.384Z,70.70
2018-09-29T16:11:12.111Z,71.40
2018-09-29T16:14:09.749Z,71.10
2018-09-29T16:17:07.394Z,71.00
2018-09-29T16:19:36.569Z,71.40
2018-09-29T16:22:07.728Z,72.10
2018-09-29T16:24:36.004Z,72.90
2018-09-29T16:27:04.272Z,73.90
2018-09-29T16:29:32.918Z,74.50
2018-09-29T16:32:01.226Z,75.10
2018-09-29T16:34:29.435Z,76.10
2018-09-29T16:37:02.098Z,77.10
2018-09-29T16:39:33.250Z,77.60
2018-09-29T16:42:01.484Z,78.00
2018-09-29T16:44:29.719Z,78.90
2018-09-29T16:47:05.220Z,79.50
2018-09-29T16:49:33.444Z,79.30
2018-09-29T16:52:01.803Z,79.70
2018-09-29T16:54:32.740Z,79.80
2018-09-29T16:57:00.958Z,80.00
2018-09-29T16:59:29.698Z,80.30
2018-09-29T17:01:58.017Z,80.80
2018-09-29T17:04:26.412Z,80.40
2018-09-29T17:06:54.473Z,80.60
2018-09-29T17:09:22.714Z,81.20
2018-09-29T17:11:50.946Z,81.30
2018-09-29T17:14:19.676Z,81.40
2018-09-29T17:16:47.891Z,82.50
2018-09-29T17:19:16.128Z,82.50
2018-09-29T17:21:44.389Z,82.50
2018-09-29T17:24:12.552Z,82.70
2018-09-29T17:26:40.748Z,83.30
2018-09-29T17:29:08.908Z,83.40
2018-09-29T17:31:37.159Z,84.00
2018-09-29T17:34:05.381Z,85.40
2018-09-29T17:36:33.671Z,85.20
2018-09-29T17:43:57.824Z,88.00
2018-09-29T17:46:26.084Z,87.20
2018-09-29T17:48:54.272Z,88.00
2018-09-29T17:51:22.479Z,88.80
2018-09-29T17:53:58.480Z,89.00
2018-09-29T17:56:26.685Z,89.90
2018-09-29T17:58:54.950Z,90.10
2018-09-29T18:01:23.991Z,90.00
2018-09-29T18:03:53.157Z,90.20
2018-09-29T18:06:21.361Z,90.10
2018-09-29T18:08:53.904Z,89.30
2018-09-29T18:11:22.053Z,90.80
2018-09-29T18:13:50.480Z,90.20
2018-09-29T18:16:18.659Z,90.80
2018-09-29T18:18:47.242Z,91.40
2018-09-29T18:21:37.758Z,91.40
2018-09-29T18:24:35.511Z,92.80
2018-09-29T18:27:33.080Z,93.20
2018-09-29T18:30:31.740Z,93.00
2018-09-29T18:33:29.637Z,93.20
2018-09-29T18:36:27.325Z,94.40
2018-09-29T18:39:26.183Z,95.40
2018-09-29T18:41:54.432Z,95.60
2018-09-29T18:44:44.822Z,94.70
2018-09-29T18:47:43.135Z,95.20
2018-09-29T18:50:41.112Z,95.10
2018-09-29T18:53:39.952Z,95.90
2018-09-29T18:56:37.905Z,96.40
2018-09-29T18:59:35.636Z,96.60
2018-09-29T19:02:33.228Z,98.30
2018-09-29T19:05:01.476Z,98.00
2018-09-29T19:07:52.155Z,99.50
2018-09-29T19:10:50.220Z,99.90
2018-09-29T19:13:48.420Z,99.90
2018-09-29T19:16:46.118Z,99.90
2018-09-29T19:19:14.813Z,99.90
2018-09-29T19:21:43.009Z,99.90
2018-09-29T19:24:11.312Z,99.90
2018-09-29T19:26:39.505Z,99.90
2018-09-29T19:29:07.759Z,99.90
2018-09-29T19:31:35.972Z,99.90
2018-09-29T19:34:04.199Z,99.90
2018-09-29T19:36:32.954Z,99.90
2018-09-29T19:39:02.174Z,99.90
2018-09-29T19:41:30.359Z,99.90
2018-09-29T19:43:58.601Z,99.90
2018-09-29T19:46:27.060Z,99.90
2018-09-29T19:48:55.309Z,99.90
2018-09-29T19:51:23.567Z,99.90
2018-09-29T19:53:51.742Z,99.90
2018-09-29T19:56:19.919Z,99.90
2018-09-29T19:58:48.343Z,99.90
2018-09-29T20:01:16.531Z,99.90
2018-09-29T20:03:44.818Z,99.90
2018-09-29T20:06:13.126Z,99.90
2018-09-29T20:08:41.342Z,99.90
2018-09-29T20:11:12.676Z,99.90
2018-09-29T20:13:41.283Z,99.90
2018-09-29T20:16:09.562Z,99.90
2018-09-29T20:18:38.125Z,99.90
2018-09-29T20:21:06.357Z,99.90
2018-09-29T20:23:34.533Z,99.90
2018-09-29T20:26:07.078Z,99.90
2018-09-29T20:28:35.224Z,99.90
2018-09-29T20:31:03.453Z,99.90
2018-09-29T20:33:31.780Z,99.90
2018-09-29T20:35:59.973Z,99.90
2018-09-29T20:38:28.391Z,99.90
2018-09-29T20:40:59.512Z,99.90
2018-09-29T20:43:27.748Z,99.90
2018-09-29T20:45:56.525Z,99.90
2018-09-29T20:48:24.710Z,99.90
2018-09-29T20:50:53.324Z,99.90
2018-09-29T20:53:21.548Z,99.90
2018-09-29T20:55:49.711Z,99.90
2018-09-29T20:58:17.921Z,99.90
2018-09-29T21:00:46.151Z,99.90
2018-09-29T21:03:14.348Z,99.90
2018-09-29T21:05:42.556Z,99.90
2018-09-29T21:08:10.776Z,99.90
2018-09-29T21:10:38.993Z,99.90
2018-09-29T21:13:07.431Z,99.90
2018-09-29T21:15:35.357Z,99.90
2018-09-29T21:18:03.573Z,99.90
2018-09-29T21:20:31.787Z,99.90
2018-09-29T21:23:00.028Z,99.90
2018-09-29T21:25:28.240Z,99.90
2018-09-29T21:27:56.917Z,99.90
2018-09-29T21:30:25.132Z,99.90
2018-09-29T21:32:53.293Z,99.90
2018-09-29T21:35:21.464Z,99.90
2018-09-29T21:37:49.648Z,99.90
2018-09-29T21:40:17.808Z,99.90
2018-09-29T21:42:49.127Z,99.90
2018-09-29T21:45:17.323Z,99.90
2018-09-29T21:47:45.496Z,99.90
2018-09-29T21:50:14.526Z,99.90
2018-09-29T21:52:42.725Z,99.90
2018-09-29T21:55:10.953Z,99.90
2018-09-29T21:57:39.111Z,99.90
2018-09-29T22:00:07.308Z,99.90
2018-09-29T22:02:35.504Z,99.90
2018-09-29T22:05:03.841Z,99.90
2018-09-29T22:07:32.032Z,99.90
2018-09-29T22:10:00.218Z,99.90
2018-09-29T22:12:28.417Z,99.90
2018-09-29T22:14:56.602Z,99.90
2018-09-29T22:17:24.800Z,99.90
2018-09-29T22:19:53.220Z,99.90
2018-09-29T22:22:21.390Z,99.90
2018-09-29T22:24:49.580Z,99.90
2018-09-29T22:27:17.775Z,99.90
2018-09-29T22:29:49.250Z,99.90
2018-09-29T22:32:17.949Z,99.90
2018-09-29T22:34:46.239Z,99.90
2018-09-29T22:37:14.516Z,99.90
2018-09-29T22:39:43.125Z,99.90
2018-09-29T22:42:11.323Z,99.90
2018-09-29T22:44:43.553Z,99.90
2018-09-29T22:47:11.736Z,99.90
2018-09-29T22:49:39.948Z,99.90
2018-09-29T22:52:08.271Z,99.90
2018-09-29T22:54:36.718Z,99.90
2018-09-29T22:57:04.902Z,99.90
2018-09-29T22:59:33.097Z,99.90
2018-09-29T23:02:01.287Z,99.90
2018-09-29T23:04:29.505Z,99.90
2018-09-29T23:06:59.050Z,99.90
2018-09-29T23:09:27.643Z,99.90
2018-09-29T23:11:55.873Z,99.90
2018-09-29T23:14:27.624Z,99.90
2018-09-29T23:16:55.856Z,99.90
2018-09-29T23:19:24.080Z,99.90
2018-09-29T23:21:52.799Z,99.90
2018-09-29T23:24:21.351Z,99.90
2018-09-29T23:26:49.548Z,99.90
2018-09-29T23:29:17.690Z,99.90
2018-09-29T23:31:45.884Z,99.90
2018-09-29T23:34:14.068Z,99.90
2018-09-29T23:36:42.275Z,99.90
2018-09-29T23:39:11.188Z,99.90
2018-09-29T23:41:39.536Z,99.90
2018-09-29T23:44:11.580Z,99.90
2018-09-29T23:46:39.760Z,99.90
2018-09-29T23:49:08.127Z,99.90
2018-09-29T23:51:36.319Z,99.90
2018-09-29T23:54:04.546Z,99.90
2018-09-29T23:56:32.728Z,99.90
2018-09-29T23:59:00.920Z,99.90
